シドニー国際空港の過去48時間の天気

シドニー国際空港 (Sydney Airport)

現在時刻: 3/9 18:03 AEDT (3/9 07:03 UTC) 以下の時間は現地時間です。

過去48時間のMETAR気象情報
時間 風向 風速(m/s) 視程 気温(℃) 湿度(%) 気圧(hPa) 天気現象
9 17:30 南東 8 10km以上 24 65 1013
9 17:00 南東 8 10km以上 24 69 1013
9 16:30 南東 8 10km以上 25 65 1012
9 16:00 南東 8 10km以上 25 65 1012
9 15:30 南東 8 10km以上 25 65 1012
9 15:00 南南東 8 10km以上 26 61 1012
9 14:30 南南東 8 10km以上 25 69 1012
9 14:00 南南東 7 10km以上 25 65 1012
9 13:30 南南東 8 10km以上 25 69 1012
9 13:00 南南東 8 10km以上 24 74 1012
9 12:30 7 10km以上 25 69 1012
9 12:00 南南東 7 10km以上 25 69 1012
9 11:30 7 10km以上 25 65 1012
9 11:00 南南東 7 10km以上 25 65 1012
9 10:30 4 10km以上 26 54 1012
9 10:00 4 10km以上 25 50 1012
9 09:30 西南西 3 10km以上 25 47 1011
9 09:00 西 4 10km以上 25 50 1011
9 08:30 西北西 4 10km以上 24 57 1011
9 08:00 西北西 3 10km以上 23 65 1010
9 07:30 北西 3 10km以上 21 69 1010
9 07:00 北西 3 10km以上 21 73 1010
9 06:30 北北西 4 10km以上 21 73 1009
9 06:00 北北西 3 10km以上 21 78 1009
9 05:30 西 3 10km以上 20 83 1009
9 05:00 西 4 10km以上 21 78 1009
9 04:30 西 3 10km以上 20 83 1008
9 04:00 西北西 4 10km以上 21 78 1008
9 03:30 西北西 5 10km以上 22 73 1008
9 03:00 西北西 5 10km以上 22 73 1008
9 02:30 北西 4 10km以上 21 78 1008
9 02:00 西北西 3 10km以上 22 78 1008
9 01:30 西北西 3 10km以上 22 78 1009
9 01:00 西 3 10km以上 22 78 1009
9 00:30 西 3 10km以上 22 73 1009
9 00:00 西 2 10km以上 22 73 1009
8 23:30 北北西 3 10km以上 24 65 1009
8 23:00 北西 3 10km以上 24 65 1009
8 22:30 北西 4 10km以上 24 69 1009
8 22:00 北北西 5 10km以上 24 65 1009
8 21:30 4 10km以上 25 61 1009
8 21:00 5 10km以上 25 61 1009
8 20:30 5 10km以上 25 61 1008
8 20:00 6 10km以上 26 58 1008
8 19:30 北北西 7 10km以上 27 54 1008
8 19:00 北北西 5 10km以上 27 51 1008
8 18:30 北北西 5 10km以上 26 54 1008
8 18:00 西北西 4 10km以上 26 54 1008
8 17:30 北北西 10 10km以上 26 58 1007 弱いしゅう雨
8 17:00 9 10km以上 28 58 1007 弱い雨 周辺で雷
8 16:30 6 10km以上 30 46 1007 周辺でしゅう雨
8 16:00 5 10km以上 31 40 1007 周辺でしゅう雨
8 15:30 北北西 5 10km以上 31 38 1007
8 15:00 西北西 5 10km以上 31 40 1007 弱い雨
8 14:30 西北西 6 10km以上 31 38 1008 周辺でしゅう雨
8 14:00 西北西 7 10km以上 32 38 1008
8 13:30 北西 7 10km以上 32 38 1008
8 13:00 北西 7 10km以上 31 40 1009
8 12:30 北西 7 10km以上 31 40 1009
8 12:00 北西 6 10km以上 30 46 1010
8 11:30 6 10km以上 29 48 1010
8 11:00 北北西 5 10km以上 27 54 1011
8 10:30 北北西 4 10km以上 26 58 1011
8 10:00 西北西 4 10km以上 24 65 1012
8 09:30 北西 3 10km以上 23 69 1011
8 09:00 北西 4 10km以上 22 73 1011
8 08:30 西北西 4 10km以上 22 73 1012
8 08:00 西北西 3 10km以上 22 73 1011
8 07:30 北西 4 10km以上 22 78 1011
8 07:00 北北西 4 10km以上 22 78 1011
8 06:30 北北西 2 10km以上 22 73 1011
YSSY 090630Z 13015KT 9999 SCT023 SCT033 24/17 Q1013
YSSY 090600Z 13015KT 9999 SCT022 BKN030 24/18 Q1013
YSSY 090530Z 14015KT 9999 BKN022 BKN030 25/18 Q1012
YSSY 090500Z 14015KT 9999 SCT023 BKN030 25/18 Q1012
YSSY 090430Z 14015KT 9999 BKN023 25/18 Q1012
YSSY 090400Z 15015KT 9999 SCT022 SCT260 26/18 Q1012
YSSY 090330Z 15015KT 9999 FEW022 SCT260 25/19 Q1012
YSSY 090300Z 15014KT 9999 FEW025 SCT085 BKN260 25/18 Q1012
YSSY 090230Z 16015KT 9999 FEW025 SCT085 25/19 Q1012
YSSY 090200Z 16015KT 9999 FEW025 BKN260 24/19 Q1012
YSSY 090130Z 17014KT 9999 FEW025 BKN260 25/19 Q1012
YSSY 090100Z 16014KT 9999 FEW025 25/19 Q1012
YSSY 090030Z 17014KT 9999 FEW025 25/18 Q1012
YSSY 090000Z 16013KT 9999 FEW025 25/18 Q1012
YSSY 082330Z 17008KT 9999 R16L/P2000N R16/P2000N FEW020 SCT300 26/16 Q1012
YSSY 082300Z 19007KT CAVOK 25/14 Q1012
YSSY 082230Z 24006KT CAVOK 25/13 Q1011
YSSY 082200Z 28007KT CAVOK 25/14 Q1011
YSSY 082130Z 29008KT CAVOK 24/15 Q1011
YSSY 082100Z 29006KT CAVOK 23/16 Q1010
YSSY 082030Z 32006KT CAVOK 21/15 Q1010
YSSY 082000Z 31006KT CAVOK 21/16 Q1010
YSSY 081930Z 33008KT CAVOK 21/16 Q1009
YSSY 081900Z 33005KT CAVOK 21/17 Q1009
YSSY 081830Z 27005KT CAVOK 20/17 Q1009
YSSY 081800Z 26007KT CAVOK 21/17 Q1009
YSSY 081730Z 27006KT CAVOK 20/17 Q1008
YSSY 081700Z 29008KT CAVOK 21/17 Q1008
YSSY 081630Z 29009KT CAVOK 22/17 Q1008
YSSY 081600Z 30009KT CAVOK 22/17 Q1008
YSSY 081530Z 31007KT CAVOK 21/17 Q1008
YSSY 081500Z 30005KT CAVOK 22/18 Q1008
YSSY 081430Z 30006KT CAVOK 22/18 Q1009
YSSY 081400Z 28006KT CAVOK 22/18 Q1009
YSSY 081330Z 27006KT CAVOK 22/17 Q1009
YSSY 081300Z 26004KT CAVOK 22/17 Q1009
YSSY 081230Z 33005KT CAVOK 24/17 Q1009
YSSY 081200Z 32006KT CAVOK 24/17 Q1009
YSSY 081130Z 32008KT CAVOK 24/18 Q1009
YSSY 081100Z 34010KT CAVOK 24/17 Q1009
YSSY 081030Z 36008KT CAVOK 25/17 Q1009
YSSY 081000Z 01010KT CAVOK 25/17 Q1009
YSSY 080930Z 36009KT CAVOK 25/17 Q1008
YSSY 080900Z 35012KT CAVOK 26/17 Q1008
YSSY 080830Z 34013KT CAVOK 27/17 Q1008
YSSY 080800Z 34010KT CAVOK 27/16 Q1008
YSSY 080730Z 34010KT 9999 FEW040 SCT120 BKN180 26/16 Q1008
YSSY 080700Z 29008KT 9999 FEW040 SCT120 BKN180 26/16 Q1008
YSSY 080630Z 34019KT 9999 -SHRA FEW018 BKN120 BKN180 26/17 Q1007
YSSY 080600Z 35017KT 9999 -RA VCTS FEW060 BKN120 BKN170 FEW050CB 28/19 Q1007
YSSY 080530Z 01011KT 9999 VCSH NSC 30/17 Q1007 DETECTED TO W AND NW
YSSY 080500Z 01010KT 9999 VCSH NSC 31/16 Q1007
YSSY 080430Z 33009KT CAVOK 31/15 Q1007
YSSY 080400Z 30009KT 9999 -RA NSC 31/16 Q1007
YSSY 080330Z 29012KT 9999 VCSH NSC 31/15 Q1008
YSSY 080300Z 30013KT CAVOK 32/16 Q1008
YSSY 080230Z 32014KT CAVOK 32/16 Q1008
YSSY 080200Z 31014KT CAVOK 31/16 Q1009
YSSY 080130Z 31014KT CAVOK 31/16 Q1009
YSSY 080100Z 32011KT CAVOK 30/17 Q1010
YSSY 080030Z 35012KT CAVOK 29/17 Q1010
YSSY 080000Z 34009KT CAVOK 27/17 Q1011
YSSY 072330Z 33008KT CAVOK 26/17 Q1011
YSSY 072300Z 30007KT CAVOK 24/17 Q1012
YSSY 072230Z 31006KT CAVOK 23/17 Q1011
YSSY 072200Z 31007KT CAVOK 22/17 Q1011
YSSY 072130Z 29007KT CAVOK 22/17 Q1012
YSSY 072100Z 30006KT 9999 FEW040 BKN100 BKN200 22/17 Q1011
YSSY 072030Z 31007KT 9999 FEW040 SCT100 BKN200 22/18 Q1011
YSSY 072000Z 34007KT CAVOK 22/18 Q1011
YSSY 071930Z 34004KT 9999 FEW040 SCT100 BKN190 22/17 Q1011